Time;durP1;ratioP1;P1;durP2;ratioP2;P2;SDS_P1;SDS_P2;PMS_P1;PMS_P2;Temp;Humidity;BMP_temperature;BMP_pressure;BME280_temperature;BME280_humidity;BME280_pressure;Samples;Min_cycle;Max_cycle;Signal;HPM_P1;HPM_P2
2024/01/04 00:00:32;;;;;;;6.47;2.30;;;23.90;50.00;;;;;;5110844;28;20498;-74
2024/01/04 00:02:59;;;;;;;3.83;2.35;;;23.80;49.90;;;;;;5110950;28;20032;-73
2024/01/04 00:05:25;;;;;;;3.13;2.03;;;23.70;49.90;;;;;;5110927;28;20039;-75
2024/01/04 00:07:51;;;;;;;4.07;2.78;;;23.70;49.90;;;;;;5109057;28;20054;-73
2024/01/04 00:10:17;;;;;;;4.05;2.33;;;23.70;49.80;;;;;;5110487;28;20031;-74
2024/01/04 00:12:51;;;;;;;4.65;2.72;;;23.70;49.90;;;;;;5110832;28;20027;-74
2024/01/04 00:15:17;;;;;;;3.45;2.58;;;23.70;49.80;;;;;;5110445;28;20035;-75
2024/01/04 00:17:44;;;;;;;4.40;2.72;;;23.80;49.90;;;;;;5109742;28;20200;-75
2024/01/04 00:20:10;;;;;;;2.50;2.28;;;23.70;49.90;;;;;;5110642;28;20038;-74
2024/01/04 00:22:37;;;;;;;5.45;2.83;;;23.60;49.80;;;;;;5109092;28;20497;-73
2024/01/04 00:25:03;;;;;;;3.50;2.60;;;23.60;49.90;;;;;;5111114;28;20042;-73
2024/01/04 00:27:29;;;;;;;5.15;2.63;;;23.60;50.00;;;;;;5112834;28;20045;-74
2024/01/04 00:29:55;;;;;;;3.03;2.72;;;23.50;49.90;;;;;;5114338;28;20035;-75
2024/01/04 00:32:21;;;;;;;3.08;2.22;;;23.70;50.00;;;;;;5114659;28;20036;-72
2024/01/04 00:34:47;;;;;;;6.32;2.67;;;23.60;49.90;;;;;;5113129;28;20110;-74
2024/01/04 00:37:13;;;;;;;3.70;2.67;;;23.60;49.80;;;;;;5114556;28;20117;-73
2024/01/04 00:39:39;;;;;;;3.83;2.63;;;23.60;49.80;;;;;;5113961;28;20036;-74
2024/01/04 00:42:06;;;;;;;4.35;2.75;;;23.60;49.80;;;;;;5114008;28;20088;-75
2024/01/04 00:44:32;;;;;;;3.88;2.60;;;23.60;49.70;;;;;;5106147;27;20028;-76
2024/01/04 00:46:58;;;;;;;2.95;2.35;;;23.60;49.70;;;;;;5105531;28;20035;-74
2024/01/04 00:49:24;;;;;;;3.45;2.78;;;23.60;49.70;;;;;;5094755;28;20043;-73
2024/01/04 00:51:50;;;;;;;3.13;2.10;;;23.60;49.70;;;;;;5114208;28;20089;-74
2024/01/04 00:54:16;;;;;;;3.35;2.38;;;23.60;49.70;;;;;;5114120;28;20502;-74
2024/01/04 00:56:43;;;;;;;4.25;2.75;;;23.60;49.70;;;;;;5113248;28;20054;-74
2024/01/04 00:59:09;;;;;;;5.78;2.83;;;23.60;49.70;;;;;;5114226;28;20097;-70
2024/01/04 01:01:35;;;;;;;5.25;2.80;;;23.60;49.60;;;;;;5113080;28;20466;-73
2024/01/04 01:04:01;;;;;;;3.63;2.33;;;23.70;49.70;;;;;;5114012;28;20020;-74
2024/01/04 01:06:28;;;;;;;3.90;2.35;;;23.70;49.80;;;;;;5112366;28;20048;-74
2024/01/04 01:08:54;;;;;;;3.53;2.03;;;23.60;49.50;;;;;;5094915;28;20063;-75
2024/01/04 01:11:20;;;;;;;4.28;2.22;;;23.50;49.50;;;;;;5113731;28;20044;-72
2024/01/04 01:13:46;;;;;;;2.15;1.75;;;23.60;49.50;;;;;;5113618;28;20114;-74
2024/01/04 01:16:12;;;;;;;3.60;2.45;;;23.60;49.50;;;;;;5113491;28;20023;-75
2024/01/04 01:18:39;;;;;;;3.08;2.28;;;23.50;49.50;;;;;;5112685;28;20387;-75
2024/01/04 01:21:05;;;;;;;2.53;1.88;;;23.50;49.50;;;;;;5113477;28;20046;-74
2024/01/04 01:23:31;;;;;;;4.38;2.03;;;23.50;49.80;;;;;;5113635;28;20028;-73
2024/01/04 01:25:57;;;;;;;4.18;2.40;;;23.60;49.40;;;;;;5113912;28;20043;-73
2024/01/04 01:28:23;;;;;;;3.38;2.30;;;23.60;49.50;;;;;;5111760;28;20360;-74
2024/01/04 01:30:53;;;;;;;3.00;2.13;;;23.50;49.50;;;;;;5096975;28;20036;-74
2024/01/04 01:33:19;;;;;;;3.38;2.17;;;23.60;49.90;;;;;;5113429;28;20028;-73
2024/01/04 01:35:45;;;;;;;1.90;1.80;;;23.40;49.50;;;;;;5040106;28;21148;-74
2024/01/04 01:38:11;;;;;;;3.45;2.22;;;23.40;49.40;;;;;;5104321;28;20039;-74
2024/01/04 01:40:37;;;;;;;4.88;2.83;;;23.50;49.50;;;;;;5113419;28;20046;-74
2024/01/04 01:43:04;;;;;;;2.53;1.77;;;23.60;49.50;;;;;;5113132;28;20023;-73
2024/01/04 01:45:30;;;;;;;1.92;1.73;;;23.50;49.50;;;;;;5112565;28;20110;-74
2024/01/04 01:47:56;;;;;;;2.97;2.17;;;23.60;49.40;;;;;;5113165;28;20106;-73
2024/01/04 01:50:24;;;;;;;4.15;2.08;;;23.60;49.40;;;;;;5112925;28;20040;-73
2024/01/04 01:52:52;;;;;;;4.80;2.15;;;23.50;49.70;;;;;;5113172;28;20501;-73
2024/01/04 01:55:19;;;;;;;3.00;1.92;;;23.50;49.30;;;;;;5112943;28;20030;-74
2024/01/04 01:57:45;;;;;;;2.75;1.83;;;23.50;49.30;;;;;;5112981;28;20044;-73
2024/01/04 02:00:13;;;;;;;3.83;2.10;;;23.50;49.30;;;;;;5112405;28;20031;-73
2024/01/04 02:02:45;;;;;;;3.95;2.10;;;23.50;49.30;;;;;;5111322;28;20028;-74
2024/01/04 02:05:12;;;;;;;2.15;1.75;;;23.60;49.20;;;;;;5107965;28;20036;-73
2024/01/04 02:07:38;;;;;;;3.42;2.00;;;23.50;49.20;;;;;;5097491;28;20618;-74
2024/01/04 02:10:06;;;;;;;3.22;2.00;;;23.50;49.20;;;;;;5112222;28;20078;-74
2024/01/04 02:12:32;;;;;;;2.17;1.45;;;23.40;49.10;;;;;;5109158;28;20047;-74
2024/01/04 02:14:58;;;;;;;3.17;1.90;;;23.50;49.20;;;;;;5111237;28;20113;-74
2024/01/04 02:17:25;;;;;;;1.92;1.73;;;23.50;49.10;;;;;;5112096;28;20128;-74
2024/01/04 02:19:52;;;;;;;3.70;2.47;;;23.40;49.00;;;;;;5108302;28;20055;-74
2024/01/04 02:22:18;;;;;;;3.30;2.08;;;23.40;49.00;;;;;;5105281;28;20031;-73
2024/01/04 02:24:44;;;;;;;3.40;2.33;;;23.40;49.00;;;;;;5110850;28;20107;-74
2024/01/04 02:27:12;;;;;;;2.00;1.80;;;23.30;49.10;;;;;;5112328;28;20497;-74
2024/01/04 02:29:39;;;;;;;5.00;2.17;;;23.40;49.10;;;;;;5111968;28;20067;-74
2024/01/04 02:32:06;;;;;;;1.75;1.48;;;23.40;49.10;;;;;;5110774;28;20423;-75
2024/01/04 02:34:33;;;;;;;3.33;1.90;;;23.40;49.10;;;;;;5107026;28;20036;-74
2024/01/04 02:36:59;;;;;;;2.38;1.73;;;23.40;49.40;;;;;;5109527;28;20126;-74
2024/01/04 02:39:25;;;;;;;2.53;2.08;;;23.40;49.00;;;;;;5109661;28;20054;-74
2024/01/04 02:41:51;;;;;;;6.60;1.70;;;23.50;49.10;;;;;;5091755;28;20174;-74
2024/01/04 02:44:17;;;;;;;2.90;2.03;;;23.50;49.10;;;;;;5109105;28;20441;-75
2024/01/04 02:46:43;;;;;;;2.10;1.70;;;23.40;49.00;;;;;;5109380;28;20548;-74
2024/01/04 02:49:10;;;;;;;2.67;1.85;;;23.40;48.90;;;;;;5108933;28;20036;-74
2024/01/04 02:51:36;;;;;;;2.25;1.70;;;23.50;49.00;;;;;;5109340;28;20044;-74
2024/01/04 02:54:02;;;;;;;2.00;1.50;;;23.40;48.90;;;;;;5109041;28;20084;-73
2024/01/04 02:56:28;;;;;;;2.05;1.80;;;23.40;48.90;;;;;;5109495;28;20242;-74
2024/01/04 02:58:54;;;;;;;1.80;1.60;;;23.60;48.90;;;;;;5075034;28;20116;-73
2024/01/04 03:01:21;;;;;;;2.67;1.48;;;23.40;48.80;;;;;;5108737;28;20115;-73
2024/01/04 03:03:53;;;;;;;1.65;1.38;;;23.40;48.80;;;;;;5107491;28;20557;-74
2024/01/04 03:06:22;;;;;;;2.03;1.85;;;23.40;48.80;;;;;;5109187;28;20035;-74
2024/01/04 03:08:48;;;;;;;2.78;1.40;;;23.40;48.70;;;;;;5111621;28;20043;-75
2024/01/04 03:11:15;;;;;;;3.22;1.90;;;23.30;48.70;;;;;;5111443;28;20039;-74
2024/01/04 03:13:41;;;;;;;3.08;2.20;;;23.40;48.70;;;;;;5111415;28;20071;-75
2024/01/04 03:16:07;;;;;;;1.75;1.65;;;23.30;49.10;;;;;;5111508;28;20042;-74
2024/01/04 03:18:34;;;;;;;2.40;1.67;;;23.20;48.60;;;;;;5111220;28;20040;-74
2024/01/04 03:21:05;;;;;;;2.30;1.70;;;23.20;48.60;;;;;;5092327;28;20062;-75
2024/01/04 03:23:31;;;;;;;1.98;1.80;;;23.40;48.70;;;;;;5111844;28;20050;-75
2024/01/04 03:25:57;;;;;;;1.38;1.27;;;23.20;48.60;;;;;;5111526;28;20459;-74
2024/01/04 03:28:23;;;;;;;2.22;1.58;;;23.30;48.70;;;;;;5111370;28;20492;-72
2024/01/04 03:30:49;;;;;;;2.63;1.48;;;23.20;48.60;;;;;;5110526;28;20062;-74
2024/01/04 03:33:15;;;;;;;1.58;1.42;;;23.20;48.90;;;;;;5104102;28;20395;-73
2024/01/04 03:35:41;;;;;;;2.15;1.48;;;23.20;48.60;;;;;;5072114;28;20119;-75
2024/01/04 03:38:07;;;;;;;2.92;1.98;;;23.30;48.70;;;;;;5091559;28;20032;-74
2024/01/04 03:40:33;;;;;;;1.88;1.60;;;23.40;48.70;;;;;;5091022;28;20044;-74
2024/01/04 03:43:00;;;;;;;2.10;1.90;;;23.40;48.70;;;;;;5108739;28;20387;-74
2024/01/04 03:45:26;;;;;;;4.30;2.05;;;23.40;48.60;;;;;;5111272;28;20027;-75
2024/01/04 03:47:52;;;;;;;3.22;1.83;;;23.30;48.60;;;;;;5111259;28;20118;-75
2024/01/04 03:50:18;;;;;;;3.22;1.98;;;23.40;48.80;;;;;;5110756;28;20118;-73
2024/01/04 03:52:44;;;;;;;2.15;1.88;;;23.40;48.70;;;;;;5111295;28;20047;-75
2024/01/04 03:55:11;;;;;;;2.25;2.00;;;23.50;48.70;;;;;;5110642;28;20096;-74
2024/01/04 03:57:37;;;;;;;2.22;1.95;;;23.50;48.70;;;;;;5111031;28;20131;-73
2024/01/04 04:00:03;;;;;;;2.13;1.80;;;23.40;48.50;;;;;;5111389;28;20039;-73
2024/01/04 04:02:37;;;;;;;1.90;1.65;;;23.40;48.50;;;;;;5114640;28;20043;-75
2024/01/04 04:05:04;;;;;;;1.67;1.55;;;23.40;48.20;;;;;;5114493;28;20475;-75
2024/01/04 04:07:30;;;;;;;2.13;1.50;;;23.10;48.20;;;;;;5114915;28;20387;-74
2024/01/04 04:09:57;;;;;;;2.53;1.60;;;23.40;48.50;;;;;;5096928;28;20040;-73
2024/01/04 04:12:23;;;;;;;2.15;1.80;;;23.20;48.40;;;;;;5115435;28;20405;-73
2024/01/04 04:14:51;;;;;;;2.95;2.10;;;23.20;48.40;;;;;;5114917;28;20093;-75
2024/01/04 04:17:24;;;;;;;2.85;2.05;;;23.20;48.10;;;;;;5114840;28;20083;-72
2024/01/04 04:19:53;;;;;;;2.78;2.35;;;23.10;48.40;;;;;;5113437;28;20035;-74
2024/01/04 04:22:19;;;;;;;3.38;2.20;;;23.10;48.30;;;;;;5114759;28;20380;-73
2024/01/04 04:24:45;;;;;;;5.00;2.65;;;23.20;48.10;;;;;;5112669;28;20043;-75
2024/01/04 04:27:11;;;;;;;5.18;3.38;;;23.20;48.50;;;;;;5095661;28;20024;-74
2024/01/04 04:29:41;;;;;;;5.90;3.65;;;23.20;48.20;;;;;;5095938;28;20028;-75
2024/01/04 04:32:08;;;;;;;4.53;2.60;;;23.20;48.50;;;;;;5112529;28;20044;-74
2024/01/04 04:34:37;;;;;;;5.70;3.58;;;23.10;48.20;;;;;;5114223;28;20047;-73
2024/01/04 04:37:03;;;;;;;5.55;3.60;;;23.20;48.30;;;;;;5078490;28;20042;-72
2024/01/04 04:39:29;;;;;;;5.45;3.38;;;23.20;48.30;;;;;;5115029;28;20047;-74
2024/01/04 04:41:55;;;;;;;3.55;2.50;;;23.30;48.30;;;;;;5114313;28;20061;-73
2024/01/04 04:44:21;;;;;;;3.30;2.42;;;23.20;48.20;;;;;;5095093;28;20089;-73
2024/01/04 04:46:47;;;;;;;3.63;2.20;;;23.20;48.10;;;;;;5114640;28;20050;-74
2024/01/04 04:49:13;;;;;;;7.72;2.80;;;23.20;48.10;;;;;;5114483;28;20044;-75
2024/01/04 04:51:40;;;;;;;6.32;2.85;;;23.30;48.20;;;;;;5114331;28;20038;-75
2024/01/04 04:54:06;;;;;;;3.83;2.90;;;23.20;48.10;;;;;;5114131;28;20095;-75
2024/01/04 04:56:32;;;;;;;4.07;2.58;;;23.20;48.00;;;;;;5095217;28;20044;-74
2024/01/04 04:58:58;;;;;;;4.18;2.95;;;23.20;48.00;;;;;;5114225;28;20032;-75
2024/01/04 05:01:24;;;;;;;3.75;2.67;;;23.20;47.80;;;;;;5113867;28;20100;-73
2024/01/04 05:03:51;;;;;;;6.45;3.28;;;23.10;48.00;;;;;;5076474;28;20044;-74
2024/01/04 05:06:17;;;;;;;3.50;2.70;;;23.00;47.90;;;;;;5113834;28;20039;-74
2024/01/04 05:08:43;;;;;;;4.32;3.03;;;23.10;47.90;;;;;;5114315;28;20097;-74
2024/01/04 05:11:09;;;;;;;4.30;2.85;;;23.00;47.80;;;;;;5114025;28;20043;-74
2024/01/04 05:13:35;;;;;;;3.60;2.70;;;23.10;47.90;;;;;;5113902;28;20031;-75
2024/01/04 05:16:02;;;;;;;4.10;2.70;;;23.10;47.90;;;;;;5113863;28;20027;-73
2024/01/04 05:18:28;;;;;;;3.85;3.00;;;23.10;47.90;;;;;;5113866;28;20476;-74
2024/01/04 05:20:54;;;;;;;4.18;2.80;;;23.10;48.00;;;;;;5113909;28;20027;-74
2024/01/04 05:23:21;;;;;;;6.65;2.78;;;23.10;47.90;;;;;;5088234;28;20067;-74
2024/01/04 05:25:47;;;;;;;4.38;2.83;;;23.10;47.90;;;;;;5113130;28;20046;-73
2024/01/04 05:28:13;;;;;;;10.57;5.95;;;23.10;47.90;;;;;;5114241;27;20031;-75
2024/01/04 05:30:40;;;;;;;7.20;4.10;;;23.10;47.80;;;;;;5111383;28;20044;-73
2024/01/04 05:33:06;;;;;;;3.80;3.03;;;23.20;47.80;;;;;;5113343;28;20057;-72
2024/01/04 05:35:32;;;;;;;4.22;2.63;;;23.10;47.80;;;;;;5113044;27;20106;-74
2024/01/04 05:37:58;;;;;;;5.60;3.00;;;23.10;47.80;;;;;;5093454;28;20126;-74
2024/01/04 05:40:24;;;;;;;4.35;2.13;;;23.10;47.70;;;;;;5113209;28;20051;-75
2024/01/04 05:42:52;;;;;;;2.80;2.10;;;23.10;47.70;;;;;;5112834;28;20090;-74
2024/01/04 05:45:18;;;;;;;3.30;2.53;;;23.20;47.70;;;;;;5112035;27;20020;-74
2024/01/04 05:47:44;;;;;;;2.47;2.17;;;23.10;47.70;;;;;;5063377;28;20071;-77
2024/01/04 05:50:10;;;;;;;3.83;1.58;;;23.20;47.90;;;;;;5061116;28;20076;-77
2024/01/04 05:52:36;;;;;;;2.80;1.70;;;23.10;46.30;;;;;;5064899;28;20037;-75
2024/01/04 05:55:04;;;;;;;1.70;1.40;;;23.30;47.20;;;;;;5058435;28;20043;-75
2024/01/04 05:57:31;;;;;;;2.38;1.60;;;23.40;43.10;;;;;;5046253;28;20048;-76
2024/01/04 05:59:57;;;;;;;1.40;1.30;;;23.40;44.10;;;;;;5069086;28;20480;-77
2024/01/04 06:02:26;;;;;;;2.17;1.40;;;23.30;45.40;;;;;;5066196;28;20052;-74
2024/01/04 06:04:52;;;;;;;1.60;1.50;;;23.30;47.50;;;;;;5058364;28;20045;-76
2024/01/04 06:07:18;;;;;;;2.70;1.42;;;23.50;47.60;;;;;;5067473;28;20067;-74
2024/01/04 06:09:45;;;;;;;1.80;1.70;;;23.50;50.10;;;;;;5061066;28;20044;-77
2024/01/04 06:12:11;;;;;;;2.60;2.00;;;23.60;47.30;;;;;;5067861;28;20451;-78
2024/01/04 06:14:37;;;;;;;1.67;1.58;;;23.70;49.10;;;;;;5067535;28;20021;-81
2024/01/04 06:17:03;;;;;;;1.67;1.50;;;23.70;49.30;;;;;;5064754;28;20048;-78
2024/01/04 06:19:30;;;;;;;1.98;1.73;;;23.70;50.20;;;;;;5080533;28;20093;-77
2024/01/04 06:21:56;;;;;;;1.80;1.33;;;23.70;44.10;;;;;;5088685;28;20065;-76
2024/01/04 06:24:24;;;;;;;2.42;1.70;;;23.80;51.60;;;;;;5088459;28;20040;-73
2024/01/04 06:26:51;;;;;;;1.50;1.40;;;23.90;51.30;;;;;;5089452;28;20499;-80
2024/01/04 06:29:18;;;;;;;2.65;2.13;;;23.90;51.70;;;;;;5090093;28;20047;-80
2024/01/04 06:31:44;;;;;;;2.30;2.00;;;23.90;51.80;;;;;;5089557;28;20074;-80
2024/01/04 06:34:10;;;;;;;1.58;1.48;;;24.00;51.80;;;;;;5089444;28;20079;-82
2024/01/04 06:36:37;;;;;;;2.08;1.23;;;24.00;51.70;;;;;;5089193;28;20030;-81
2024/01/04 06:39:03;;;;;;;2.05;1.30;;;23.90;51.90;;;;;;5089519;28;20036;-79
2024/01/04 06:41:30;;;;;;;2.92;1.30;;;24.00;52.10;;;;;;5087284;28;20111;-77
2024/01/04 06:43:56;;;;;;;4.45;1.55;;;24.00;52.50;;;;;;5089213;28;20113;-79
2024/01/04 06:46:22;;;;;;;1.92;1.42;;;23.90;52.80;;;;;;5087826;28;20077;-80
2024/01/04 06:48:48;;;;;;;1.45;1.35;;;23.90;53.00;;;;;;5087469;28;20028;-79
2024/01/04 06:51:15;;;;;;;3.40;1.60;;;23.90;53.30;;;;;;5089194;28;20380;-78
2024/01/04 06:53:41;;;;;;;3.38;1.73;;;23.90;53.00;;;;;;5072752;28;20473;-80
2024/01/04 06:56:07;;;;;;;2.45;1.63;;;23.80;53.50;;;;;;5088103;28;20044;-74
2024/01/04 06:58:33;;;;;;;1.83;1.40;;;23.80;53.20;;;;;;5091037;28;20032;-75
2024/01/04 07:00:59;;;;;;;1.70;1.20;;;23.80;53.10;;;;;;5110125;28;20208;-77
2024/01/04 07:03:25;;;;;;;1.77;1.10;;;23.80;53.10;;;;;;5110844;28;20102;-77
2024/01/04 07:05:51;;;;;;;3.40;0.95;;;23.90;53.30;;;;;;5110537;28;20476;-78
2024/01/04 07:08:17;;;;;;;1.63;1.35;;;23.80;53.10;;;;;;5107263;28;20070;-77
2024/01/04 07:10:44;;;;;;;1.88;1.00;;;23.80;52.90;;;;;;5095916;28;20515;-78
2024/01/04 07:13:10;;;;;;;1.20;0.90;;;23.70;52.80;;;;;;5100663;28;20031;-78
2024/01/04 07:15:36;;;;;;;5.97;1.25;;;23.80;52.90;;;;;;5111409;28;20040;-80
2024/01/04 07:18:02;;;;;;;0.73;0.73;;;23.80;53.50;;;;;;5111715;28;20055;-81
2024/01/04 07:20:28;;;;;;;5.43;1.88;;;23.90;56.80;;;;;;5111860;28;20068;-77
2024/01/04 07:22:54;;;;;;;3.10;1.55;;;23.80;56.20;;;;;;5105996;28;20039;-76
2024/01/04 07:25:22;;;;;;;1.63;1.15;;;23.90;55.20;;;;;;5108954;28;20036;-80
2024/01/04 07:27:49;;;;;;;2.35;1.13;;;23.90;54.90;;;;;;5095423;28;20036;-74
2024/01/04 07:30:15;;;;;;;5.05;1.40;;;23.80;54.60;;;;;;5104403;28;20504;-74
2024/01/04 07:32:41;;;;;;;1.75;1.00;;;23.80;54.50;;;;;;5110959;28;20031;-78
2024/01/04 07:35:09;;;;;;;2.70;2.00;;;23.90;54.50;;;;;;5110846;28;20028;-75
2024/01/04 07:37:35;;;;;;;6.78;2.08;;;23.80;54.20;;;;;;5109278;28;20052;-75
2024/01/04 07:40:03;;;;;;;4.20;2.35;;;23.90;54.40;;;;;;5107430;28;20020;-75
2024/01/04 07:42:29;;;;;;;4.00;1.88;;;24.00;54.30;;;;;;5089127;28;20704;-74
2024/01/04 07:44:55;;;;;;;3.42;2.30;;;23.90;54.10;;;;;;5108455;28;20046;-77
2024/01/04 07:47:21;;;;;;;3.35;1.85;;;23.90;54.00;;;;;;5110072;28;20035;-76
2024/01/04 07:49:47;;;;;;;5.38;2.38;;;23.90;54.00;;;;;;5110587;28;20448;-75
2024/01/04 07:52:14;;;;;;;6.57;2.63;;;24.00;54.00;;;;;;5101829;28;20148;-76
2024/01/04 07:54:40;;;;;;;5.07;2.13;;;23.90;54.00;;;;;;5110367;28;20070;-76
2024/01/04 07:57:06;;;;;;;3.25;2.65;;;23.90;53.90;;;;;;5102602;28;20024;-77
2024/01/04 07:59:32;;;;;;;4.53;3.03;;;23.90;53.80;;;;;;5101518;28;20429;-76
2024/01/04 08:01:58;;;;;;;2.70;2.15;;;23.90;53.80;;;;;;5104143;28;20551;-77
2024/01/04 08:04:24;;;;;;;5.15;3.22;;;24.00;53.80;;;;;;5110935;28;20097;-74
2024/01/04 08:06:50;;;;;;;5.53;3.03;;;24.00;53.80;;;;;;5111158;28;20395;-76
2024/01/04 08:09:18;;;;;;;5.13;3.17;;;23.70;53.70;;;;;;5105781;28;20055;-76
2024/01/04 08:11:44;;;;;;;6.35;3.00;;;23.80;53.80;;;;;;5101776;28;20028;-78
2024/01/04 08:14:10;;;;;;;5.28;2.33;;;23.80;53.80;;;;;;5103163;28;20364;-76
2024/01/04 08:16:36;;;;;;;4.25;2.47;;;23.70;54.00;;;;;;5104372;28;20089;-77
2024/01/04 08:19:02;;;;;;;2.65;1.65;;;23.70;54.20;;;;;;5101959;28;20666;-80
2024/01/04 08:21:28;;;;;;;2.65;1.73;;;23.70;54.70;;;;;;5102359;28;20036;-78
2024/01/04 08:23:54;;;;;;;3.15;2.30;;;23.70;54.70;;;;;;5101256;28;20032;-78
2024/01/04 08:26:21;;;;;;;1.98;1.23;;;23.70;54.60;;;;;;5101414;28;20628;-81
2024/01/04 08:28:47;;;;;;;1.42;1.05;;;23.80;54.50;;;;;;5099887;28;20070;-80
2024/01/04 08:31:13;;;;;;;1.85;1.48;;;23.70;54.40;;;;;;5109274;28;20044;-81
2024/01/04 08:33:39;;;;;;;3.17;1.77;;;23.70;54.20;;;;;;5109813;28;20112;-81
2024/01/04 08:36:05;;;;;;;2.30;1.85;;;23.60;54.00;;;;;;5110612;28;20060;-81
2024/01/04 08:38:31;;;;;;;3.92;2.40;;;23.70;54.10;;;;;;5111078;28;20039;-81
2024/01/04 08:40:57;;;;;;;2.78;2.03;;;23.70;53.80;;;;;;5109433;28;20032;-78
2024/01/04 08:43:23;;;;;;;3.30;2.33;;;23.60;53.60;;;;;;5109504;28;20479;-77
2024/01/04 08:45:50;;;;;;;1.75;1.63;;;23.80;53.70;;;;;;5108449;28;20039;-78
2024/01/04 08:48:16;;;;;;;5.47;2.40;;;23.70;53.70;;;;;;5106420;28;20076;-80
2024/01/04 08:50:42;;;;;;;2.33;1.20;;;23.80;53.70;;;;;;5113088;28;20028;-79
2024/01/04 08:53:08;;;;;;;3.45;1.10;;;23.70;53.70;;;;;;5113803;28;20032;-78
2024/01/04 08:55:34;;;;;;;1.63;1.00;;;23.80;53.70;;;;;;5114537;28;20052;-78
2024/01/04 08:58:02;;;;;;;1.42;1.30;;;23.70;53.80;;;;;;5114638;28;20051;-75
2024/01/04 09:00:28;;;;;;;3.00;1.45;;;23.80;53.90;;;;;;5113248;28;20849;-77
2024/01/04 09:02:54;;;;;;;2.42;1.00;;;23.80;54.00;;;;;;5112028;28;20106;-75
2024/01/04 09:05:20;;;;;;;1.95;1.42;;;23.70;53.50;;;;;;5110565;28;20088;-74
2024/01/04 09:07:46;;;;;;;4.20;2.17;;;23.80;52.30;;;;;;5112942;28;20053;-74
2024/01/04 09:10:12;;;;;;;3.55;2.40;;;23.70;51.20;;;;;;5107652;28;20044;-76
2024/01/04 09:12:39;;;;;;;2.85;2.13;;;23.80;50.30;;;;;;5106401;27;20035;-76
2024/01/04 09:15:07;;;;;;;4.03;2.25;;;23.80;49.80;;;;;;5112828;28;20035;-75
2024/01/04 09:17:34;;;;;;;5.25;2.28;;;23.70;49.50;;;;;;5111530;28;20059;-76
2024/01/04 09:20:00;;;;;;;4.53;2.47;;;23.60;49.40;;;;;;5112023;28;20119;-76
2024/01/04 09:22:26;;;;;;;4.22;2.00;;;23.70;49.40;;;;;;5113166;28;20054;-76
2024/01/04 09:24:53;;;;;;;3.45;2.08;;;23.60;49.10;;;;;;5111970;28;20110;-75
2024/01/04 09:27:19;;;;;;;7.32;2.30;;;23.70;48.90;;;;;;5090424;28;20525;-74
2024/01/04 09:29:47;;;;;;;3.22;1.77;;;23.60;48.70;;;;;;5089750;28;20587;-76
2024/01/04 09:32:13;;;;;;;4.07;2.05;;;23.60;48.60;;;;;;5090095;28;20097;-76
2024/01/04 09:34:39;;;;;;;6.70;2.42;;;23.60;48.30;;;;;;5085200;28;20809;-75
2024/01/04 09:37:05;;;;;;;2.38;2.17;;;23.50;48.00;;;;;;5070286;28;20468;-74
2024/01/04 09:39:32;;;;;;;4.65;1.98;;;23.60;47.50;;;;;;5089600;28;20043;-75
2024/01/04 09:42:00;;;;;;;3.45;2.08;;;23.50;47.10;;;;;;5090413;28;20065;-74
2024/01/04 09:44:26;;;;;;;4.65;1.90;;;23.50;46.90;;;;;;5070647;28;20028;-76
2024/01/04 09:46:54;;;;;;;3.60;2.33;;;23.60;46.10;;;;;;5080115;28;20059;-76
2024/01/04 09:49:20;;;;;;;4.03;2.08;;;23.50;45.60;;;;;;5088770;28;20044;-76
2024/01/04 09:51:47;;;;;;;4.15;1.70;;;23.50;45.20;;;;;;5086128;28;20054;-75
2024/01/04 09:54:13;;;;;;;4.03;2.60;;;23.40;44.50;;;;;;5088549;28;20043;-76
2024/01/04 09:56:43;;;;;;;4.25;2.25;;;23.40;44.10;;;;;;5089131;28;20464;-74
2024/01/04 09:59:13;;;;;;;3.60;2.38;;;23.50;44.10;;;;;;5107187;28;20407;-75
2024/01/04 10:01:40;;;;;;;3.67;2.55;;;23.50;43.80;;;;;;5112879;28;20023;-75
2024/01/04 10:04:11;;;;;;;2.35;1.80;;;23.40;43.50;;;;;;5100972;28;20036;-78
2024/01/04 10:06:39;;;;;;;3.53;2.25;;;23.50;43.60;;;;;;5092831;28;20036;-78
2024/01/04 10:09:40;;;;;;;5.38;2.78;;;23.40;44.30;;;;;;5105389;28;20034;-79
2024/01/04 10:12:11;;;;;;;3.83;2.28;;;23.60;45.50;;;;;;5049532;28;20128;-78
2024/01/04 10:14:37;;;;;;;3.70;2.00;;;23.50;46.20;;;;;;5016456;28;20099;-79
2024/01/04 10:17:04;;;;;;;2.90;1.98;;;23.50;46.70;;;;;;5043437;28;20068;-79
2024/01/04 10:19:32;;;;;;;2.55;1.90;;;23.70;47.20;;;;;;5044874;28;20564;-79
2024/01/04 10:22:03;;;;;;;2.63;1.50;;;23.50;47.30;;;;;;5049604;28;20217;-79
2024/01/04 10:24:40;;;;;;;5.05;2.25;;;23.60;47.50;;;;;;5049849;28;20477;-79
2024/01/04 10:27:08;;;;;;;1.98;1.73;;;23.60;47.70;;;;;;5048211;28;20037;-78
2024/01/04 10:29:36;;;;;;;2.85;2.00;;;23.70;47.80;;;;;;5032915;28;20088;-77
2024/01/04 10:32:09;;;;;;;2.70;1.92;;;23.60;48.00;;;;;;5029779;28;20099;-77
2024/01/04 10:34:38;;;;;;;4.20;2.40;;;23.60;48.10;;;;;;5012840;28;20032;-79
2024/01/04 10:37:12;;;;;;;5.10;2.40;;;23.70;48.30;;;;;;5031173;28;20041;-78
2024/01/04 10:39:45;;;;;;;4.32;2.42;;;23.60;48.30;;;;;;5030568;28;20091;-79
2024/01/04 10:42:12;;;;;;;;;;;23.80;48.50;;;;;;5039760;28;20048;-78
2024/01/04 10:44:39;;;;;;;5.47;1.80;;;23.70;48.60;;;;;;5030581;28;20343;-79
2024/01/04 10:47:09;;;;;;;5.25;2.72;;;23.70;48.70;;;;;;5023384;28;20136;-78
2024/01/04 10:49:40;;;;;;;4.35;2.63;;;23.80;48.80;;;;;;5101414;28;20067;-79
2024/01/04 10:52:12;;;;;;;2.95;1.90;;;23.70;48.90;;;;;;5111565;28;20035;-80
2024/01/04 10:54:41;;;;;;;5.38;2.50;;;23.80;49.00;;;;;;5111736;28;20032;-79
2024/01/04 10:57:09;;;;;;;5.47;2.97;;;23.90;49.20;;;;;;5111682;28;20043;-78
2024/01/04 10:59:36;;;;;;;3.08;2.22;;;23.80;49.10;;;;;;5097203;28;20031;-78
2024/01/04 11:02:03;;;;;;;4.03;2.13;;;23.90;49.30;;;;;;5092432;28;20031;-78
2024/01/04 11:04:30;;;;;;;3.13;1.90;;;23.70;49.30;;;;;;5111590;28;20028;-78
2024/01/04 11:06:59;;;;;;;6.22;2.55;;;23.70;49.40;;;;;;5112093;28;20539;-79
2024/01/04 11:09:26;;;;;;;3.75;2.08;;;23.70;49.50;;;;;;5112094;28;20039;-80
2024/01/04 11:11:54;;;;;;;7.70;3.40;;;23.70;49.50;;;;;;5108876;28;20051;-76
2024/01/04 11:14:23;;;;;;;3.38;2.60;;;23.70;49.40;;;;;;5111473;28;20080;-78
2024/01/04 11:17:04;;;;;;;16.45;3.13;;;23.80;50.10;;;;;;5110807;28;20083;-80
2024/01/04 11:19:33;;;;;;;7.15;2.92;;;24.00;48.30;;;;;;5110532;28;20403;-81
2024/01/04 11:21:59;;;;;;;7.03;2.85;;;24.10;45.40;;;;;;5111959;28;20084;-80
2024/01/04 11:25:03;;;;;;;5.07;2.78;;;23.90;42.70;;;;;;5111556;28;20032;-79
2024/01/04 11:27:31;;;;;;;4.72;2.67;;;23.90;41.20;;;;;;5109752;28;20081;-79
2024/01/04 11:29:57;;;;;;;6.28;2.55;;;23.80;40.70;;;;;;5111640;28;20023;-77
2024/01/04 11:32:24;;;;;;;4.75;2.88;;;23.80;40.10;;;;;;5112460;28;20371;-80
2024/01/04 11:34:50;;;;;;;4.22;2.55;;;23.90;42.90;;;;;;5111495;28;20597;-76
2024/01/04 11:37:18;;;;;;;7.28;2.63;;;23.80;40.40;;;;;;5092510;28;20417;-78
2024/01/04 11:40:07;;;;;;;4.88;2.80;;;23.90;44.00;;;;;;5111887;28;20102;-78
2024/01/04 11:42:38;;;;;;;7.60;3.28;;;23.80;43.50;;;;;;5111182;28;20039;-76
2024/01/04 11:45:06;;;;;;;7.15;2.60;;;23.90;42.90;;;;;;5111835;28;20027;-78
2024/01/04 11:47:37;;;;;;;5.00;2.65;;;23.90;42.60;;;;;;5111659;28;20479;-80
2024/01/04 11:50:14;;;;;;;3.65;2.28;;;24.00;39.50;;;;;;5111489;28;20032;-76
2024/01/04 11:52:40;;;;;;;4.53;3.20;;;23.90;39.90;;;;;;5109799;28;20039;-80
2024/01/04 11:55:07;;;;;;;4.18;2.42;;;23.90;39.90;;;;;;5111409;28;20028;-75
2024/01/04 11:57:34;;;;;;;4.22;2.38;;;23.90;39.00;;;;;;5111104;28;20027;-77
2024/01/04 12:00:12;;;;;;;3.35;2.20;;;23.90;39.00;;;;;;5111319;28;20357;-76
2024/01/04 12:02:39;;;;;;;3.25;1.98;;;24.10;39.00;;;;;;5110253;28;20672;-76
2024/01/04 12:05:06;;;;;;;8.00;2.78;;;23.90;38.80;;;;;;5109818;28;20106;-76
2024/01/04 12:07:34;;;;;;;5.50;2.40;;;23.90;39.10;;;;;;5111072;28;20032;-76
2024/01/04 12:10:01;;;;;;;7.47;2.38;;;23.90;39.40;;;;;;5109842;28;20061;-76
2024/01/04 12:12:27;;;;;;;3.80;2.45;;;23.90;40.10;;;;;;5107826;28;20035;-74
2024/01/04 12:14:53;;;;;;;3.70;2.17;;;23.90;39.20;;;;;;5106125;28;20028;-77
2024/01/04 12:17:19;;;;;;;2.88;1.95;;;23.80;47.00;;;;;;5111388;28;20083;-79
2024/01/04 12:19:47;;;;;;;4.10;1.92;;;23.90;47.70;;;;;;5108661;28;20120;-79
2024/01/04 12:22:13;;;;;;;2.80;1.63;;;24.20;48.00;;;;;;5112483;28;20055;-76
2024/01/04 12:24:42;;;;;;;4.15;2.42;;;23.90;48.20;;;;;;5115078;28;20467;-77
2024/01/04 12:27:08;;;;;;;3.08;2.30;;;24.00;48.40;;;;;;5106563;28;20028;-77
2024/01/04 12:29:35;;;;;;;3.20;1.70;;;23.90;48.50;;;;;;5112550;28;20543;-76
2024/01/04 12:32:04;;;;;;;3.78;2.10;;;24.10;48.80;;;;;;5114759;28;20100;-79
2024/01/04 12:34:30;;;;;;;5.72;2.50;;;24.00;49.20;;;;;;5115091;28;20032;-77
2024/01/04 12:37:06;;;;;;;6.22;2.65;;;24.10;49.40;;;;;;5115290;28;20043;-79
2024/01/04 12:39:33;;;;;;;4.00;2.30;;;24.10;48.00;;;;;;5113713;28;20036;-74
2024/01/04 12:41:59;;;;;;;4.93;2.80;;;24.10;50.30;;;;;;5104708;28;20040;-77
2024/01/04 12:44:25;;;;;;;4.43;2.40;;;24.20;48.30;;;;;;5112076;28;20028;-75
2024/01/04 12:46:52;;;;;;;6.93;3.05;;;24.30;48.10;;;;;;5113268;28;20442;-75